createdAt,value
2018-08-17T00:02:20.137Z,96318.77
2018-08-17T00:04:47.426Z,96318.79
2018-08-17T00:07:14.885Z,96315.80
2018-08-17T00:09:42.321Z,96322.09
2018-08-17T00:12:09.636Z,96325.02
2018-08-17T00:14:36.952Z,96327.52
2018-08-17T00:17:04.311Z,96318.83
2018-08-17T00:19:31.577Z,96322.39
2018-08-17T00:21:58.891Z,96325.17
2018-08-17T00:24:26.494Z,96328.25
2018-08-17T00:26:54.031Z,96328.91
2018-08-17T00:29:21.347Z,96316.60
2018-08-17T00:31:48.645Z,96320.89
2018-08-17T00:34:15.901Z,96319.62
2018-08-17T00:36:43.240Z,96314.44
2018-08-17T00:39:16.736Z,96209.31
2018-08-17T00:41:44.061Z,96311.83
2018-08-17T00:44:11.410Z,96286.38
2018-08-17T00:46:38.827Z,96305.31
2018-08-17T00:49:06.378Z,96309.84
2018-08-17T00:51:33.703Z,96300.30
2018-08-17T00:54:02.069Z,96309.22
2018-08-17T00:56:29.352Z,96304.96
2018-08-17T00:58:56.659Z,96304.45
2018-08-17T01:01:24.072Z,96307.90
2018-08-17T01:03:51.483Z,96302.14
2018-08-17T01:06:18.883Z,96304.96
2018-08-17T01:08:46.141Z,96306.97
2018-08-17T01:11:13.530Z,96305.30
2018-08-17T01:13:44.877Z,96306.58
2018-08-17T01:16:12.169Z,96306.64
2018-08-17T01:18:51.472Z,96305.17
2018-08-17T01:21:18.819Z,96302.71
2018-08-17T01:23:46.132Z,96305.77
2018-08-17T01:26:13.474Z,96302.58
2018-08-17T01:28:40.822Z,96311.78
2018-08-17T01:31:08.124Z,96305.36
2018-08-17T01:33:35.375Z,96306.45
2018-08-17T01:36:02.664Z,96307.11
2018-08-17T01:38:30.048Z,96312.11
2018-08-17T01:40:57.338Z,96308.15
2018-08-17T01:43:24.712Z,96309.14
2018-08-17T01:45:52.027Z,96307.34
2018-08-17T01:48:19.324Z,96305.51
2018-08-17T01:50:46.593Z,96306.50
2018-08-17T01:53:13.931Z,96304.84
2018-08-17T01:55:41.201Z,96303.54
2018-08-17T01:58:08.595Z,96305.98
2018-08-17T02:00:36.004Z,96304.95
2018-08-17T02:03:03.451Z,96303.34
2018-08-17T02:05:30.863Z,96301.31
2018-08-17T02:07:58.238Z,96302.56
2018-08-17T02:10:25.556Z,96297.61
2018-08-17T02:12:52.908Z,96296.63
2018-08-17T02:15:20.196Z,96293.50
2018-08-17T02:17:47.513Z,96291.67
2018-08-17T02:20:14.788Z,96304.29
2018-08-17T02:22:42.366Z,96297.41
2018-08-17T02:25:09.628Z,96295.77
2018-08-17T02:27:36.842Z,96291.48
2018-08-17T02:30:04.724Z,96297.46
2018-08-17T02:32:32.032Z,96295.48
2018-08-17T02:34:59.445Z,96294.39
2018-08-17T02:37:26.782Z,96297.84
2018-08-17T02:39:54.025Z,96290.91
2018-08-17T02:42:21.298Z,96290.91
2018-08-17T02:44:48.683Z,96292.41
2018-08-17T02:47:15.973Z,96296.00
2018-08-17T02:49:43.362Z,96290.20
2018-08-17T02:55:03.817Z,96286.52
2018-08-17T02:57:31.084Z,96284.25
2018-08-17T02:59:58.381Z,96284.40
2018-08-17T03:02:25.648Z,96284.49
2018-08-17T03:04:52.856Z,96283.55
2018-08-17T03:07:20.182Z,96284.21
2018-08-17T03:09:47.436Z,96277.33
2018-08-17T03:12:14.757Z,96275.68
2018-08-17T03:14:42.018Z,96273.27
2018-08-17T03:17:09.242Z,96280.53
2018-08-17T03:19:36.495Z,96278.25
2018-08-17T03:22:03.877Z,96283.16
2018-08-17T03:24:31.126Z,96282.50
2018-08-17T03:26:58.396Z,96284.67
2018-08-17T03:29:25.712Z,96285.05
2018-08-17T03:31:53.726Z,96279.06
2018-08-17T03:34:21.030Z,96282.40
2018-08-17T03:36:48.322Z,96280.56
2018-08-17T03:39:15.601Z,96285.41
2018-08-17T03:41:42.850Z,96293.22
2018-08-17T03:44:10.168Z,96287.79
2018-08-17T03:46:37.420Z,96282.36
2018-08-17T03:49:04.945Z,96291.42
2018-08-17T03:51:32.248Z,96292.27
2018-08-17T03:53:59.571Z,96296.19
2018-08-17T03:56:26.829Z,96296.37
2018-08-17T03:58:54.086Z,96292.05
2018-08-17T04:01:21.318Z,96287.75
2018-08-17T04:03:48.544Z,96296.41
2018-08-17T04:06:15.787Z,96296.80
2018-08-17T04:08:43.040Z,96299.83
2018-08-17T04:11:10.305Z,96300.00
2018-08-17T04:13:37.537Z,96300.16
2018-08-17T04:16:04.852Z,96304.87
2018-08-17T04:18:32.188Z,96306.83
2018-08-17T04:20:59.475Z,96305.36
2018-08-17T04:24:56.290Z,96307.30
2018-08-17T04:27:23.561Z,96308.27
2018-08-17T04:29:50.852Z,96304.23
2018-08-17T04:32:18.161Z,96306.91
2018-08-17T04:34:45.429Z,96312.16
2018-08-17T04:37:12.662Z,96312.81
2018-08-17T04:39:39.914Z,96318.75
2018-08-17T04:42:07.575Z,96318.42
2018-08-17T04:45:59.451Z,96320.08
2018-08-17T04:48:26.724Z,96317.76
2018-08-17T04:50:53.990Z,96315.16
2018-08-17T04:53:21.311Z,96319.78
2018-08-17T04:55:48.607Z,96318.20
2018-08-17T04:58:15.814Z,96323.20
2018-08-17T05:00:43.142Z,96321.17
2018-08-17T05:03:10.325Z,96321.80
2018-08-17T05:05:37.586Z,96323.78
2018-08-17T05:08:04.853Z,96325.47
2018-08-17T05:10:32.126Z,96326.83
2018-08-17T05:12:59.368Z,96328.00
2018-08-17T05:15:26.666Z,96328.21
2018-08-17T05:17:53.878Z,96328.91
2018-08-17T05:20:21.161Z,96331.22
2018-08-17T05:22:48.493Z,96336.02
2018-08-17T05:25:15.781Z,96334.22
2018-08-17T05:27:43.142Z,96334.23
2018-08-17T05:30:10.549Z,96338.89
2018-08-17T05:32:37.793Z,96341.54
2018-08-17T05:35:05.284Z,96347.52
2018-08-17T05:37:32.597Z,96338.27
2018-08-17T05:39:59.896Z,96346.50
2018-08-17T05:42:27.180Z,96345.53
2018-08-17T05:44:54.431Z,96340.40
2018-08-17T05:47:21.734Z,96341.86
2018-08-17T05:49:48.995Z,96339.30
2018-08-17T05:52:17.703Z,96331.70
2018-08-17T05:54:45.926Z,96342.96
2018-08-17T05:57:13.154Z,96339.32
2018-08-17T05:59:40.431Z,96345.94
2018-08-17T06:02:07.721Z,96346.94
2018-08-17T06:04:35.012Z,96350.08
2018-08-17T06:07:02.317Z,96352.54
2018-08-17T06:09:29.546Z,96352.06
2018-08-17T06:11:56.822Z,96357.68
2018-08-17T06:14:24.130Z,96357.52
2018-08-17T06:16:51.481Z,96356.94
2018-08-17T06:19:18.755Z,96339.54
2018-08-17T06:21:46.014Z,96360.91
2018-08-17T06:24:13.243Z,96359.25
2018-08-17T06:26:40.523Z,96363.86
2018-08-17T06:29:07.887Z,96366.09
2018-08-17T06:31:35.305Z,96363.38
2018-08-17T06:34:02.505Z,96373.27
2018-08-17T06:36:29.774Z,96372.86
2018-08-17T06:38:57.171Z,96371.73
2018-08-17T06:41:24.445Z,96375.77
2018-08-17T06:43:51.763Z,96371.52
2018-08-17T06:46:19.032Z,96378.73
2018-08-17T06:48:46.327Z,96385.62
2018-08-17T06:51:13.653Z,96381.19
2018-08-17T06:53:40.842Z,96381.95
2018-08-17T06:56:08.251Z,96389.88
2018-08-17T06:58:35.516Z,96386.70
2018-08-17T07:01:02.873Z,96390.79
2018-08-17T07:03:30.353Z,96391.80
2018-08-17T07:05:57.973Z,96387.41
2018-08-17T07:08:25.208Z,96396.41
2018-08-17T07:10:52.473Z,96400.11
2018-08-17T07:13:19.769Z,96404.90
2018-08-17T07:15:47.012Z,96402.21
2018-08-17T07:18:14.340Z,96396.41
2018-08-17T07:20:41.608Z,96402.28
2018-08-17T07:23:08.891Z,96400.80
2018-08-17T07:25:36.213Z,96396.41
2018-08-17T07:28:03.575Z,96394.55
2018-08-17T07:30:30.828Z,96393.81
2018-08-17T07:32:58.178Z,96395.89
2018-08-17T07:35:25.482Z,96396.92
2018-08-17T07:37:52.701Z,96403.38
2018-08-17T07:40:20.027Z,96403.13
2018-08-17T07:42:47.270Z,96398.98
2018-08-17T07:45:14.568Z,96397.95
2018-08-17T07:47:41.892Z,96401.96
2018-08-17T07:50:13.934Z,96396.03
2018-08-17T07:52:41.242Z,96404.55
2018-08-17T07:55:08.473Z,96404.59
2018-08-17T07:57:35.787Z,96407.09
2018-08-17T08:00:03.410Z,96412.64
2018-08-17T08:02:30.659Z,96412.77
2018-08-17T08:04:57.939Z,96414.71
2018-08-17T08:07:25.178Z,96415.65
2018-08-17T08:09:52.521Z,96419.34
2018-08-17T08:12:19.807Z,96420.64
2018-08-17T08:14:47.099Z,96422.27
2018-08-17T08:17:14.410Z,96421.91
2018-08-17T08:19:41.659Z,96416.50
2018-08-17T08:22:08.958Z,96421.66
2018-08-17T08:24:36.745Z,96419.82
2018-08-17T08:27:05.149Z,96422.58
2018-08-17T08:29:32.377Z,96430.01
2018-08-17T08:31:59.608Z,96425.17
2018-08-17T08:34:27.181Z,96426.63
2018-08-17T08:36:54.513Z,96430.48
2018-08-17T08:39:21.770Z,96434.58
2018-08-17T08:41:49.093Z,96437.84
2018-08-17T08:44:16.511Z,96434.03
2018-08-17T08:46:43.764Z,96437.50
2018-08-17T08:49:11.066Z,96438.17
2018-08-17T08:51:38.336Z,96447.05
2018-08-17T08:54:05.692Z,96444.34
2018-08-17T08:56:32.958Z,96447.03
2018-08-17T08:59:00.234Z,96453.76
2018-08-17T09:01:27.572Z,96446.05
2018-08-17T09:03:54.962Z,96452.13
2018-08-17T09:06:22.761Z,96455.27
2018-08-17T09:08:50.159Z,96453.52
2018-08-17T09:11:17.368Z,96460.50
2018-08-17T09:13:44.767Z,96458.85
2018-08-17T09:16:11.985Z,96465.86
2018-08-17T09:18:39.289Z,96462.59
2018-08-17T09:21:06.622Z,96462.80
2018-08-17T09:23:33.924Z,96457.58
2018-08-17T09:27:25.742Z,96459.29
2018-08-17T09:29:52.974Z,96460.72
2018-08-17T09:32:20.316Z,96458.31
2018-08-17T09:34:47.588Z,96461.52
2018-08-17T09:37:14.887Z,96449.56
2018-08-17T09:39:42.156Z,96459.64
2018-08-17T09:42:09.480Z,96455.61
2018-08-17T09:44:36.719Z,96455.16
2018-08-17T09:47:04.021Z,96456.53
2018-08-17T09:49:31.238Z,96458.40
2018-08-17T09:51:58.554Z,96459.27
2018-08-17T09:54:25.831Z,96455.94
2018-08-17T09:56:53.149Z,96455.50
2018-08-17T09:59:20.441Z,96453.07
2018-08-17T10:01:53.095Z,96452.27
2018-08-17T10:04:26.005Z,96449.86
2018-08-17T10:06:58.824Z,96450.43
2018-08-17T10:09:30.664Z,96442.11
2018-08-17T10:11:58.007Z,96446.69
2018-08-17T10:14:25.312Z,96444.64
2018-08-17T10:16:52.619Z,96447.30
2018-08-17T10:19:19.941Z,96452.27
2018-08-17T10:21:51.406Z,96450.16
2018-08-17T10:24:18.739Z,96444.89
2018-08-17T10:26:47.216Z,96447.70
2018-08-17T10:29:14.481Z,96442.19
2018-08-17T10:31:41.756Z,96453.56
2018-08-17T10:34:09.347Z,96451.63
2018-08-17T10:36:36.594Z,96448.39
2018-08-17T10:39:04.732Z,96451.89
2018-08-17T10:41:32.024Z,96447.73
2018-08-17T10:43:59.432Z,96452.41
2018-08-17T10:46:26.753Z,96452.27
2018-08-17T10:48:54.275Z,96456.89
2018-08-17T10:51:21.486Z,96457.84
2018-08-17T10:53:48.730Z,96452.76
2018-08-17T10:56:15.927Z,96457.57
2018-08-17T10:58:43.234Z,96458.02
2018-08-17T11:01:10.497Z,96453.47
2018-08-17T11:03:37.812Z,96451.50
2018-08-17T11:06:05.423Z,96453.94
2018-08-17T11:08:32.684Z,96449.81
2018-08-17T11:11:00.124Z,96439.72
2018-08-17T11:13:28.265Z,96445.38
2018-08-17T11:15:55.549Z,96444.47
2018-08-17T11:18:22.791Z,96432.72
2018-08-17T11:20:50.413Z,96437.77
2018-08-17T11:23:17.695Z,96427.59
2018-08-17T11:25:44.974Z,96430.71
2018-08-17T11:28:12.254Z,96428.78
2018-08-17T11:30:39.630Z,96434.37
2018-08-17T11:33:07.216Z,96443.28
2018-08-17T11:35:34.493Z,96432.33
2018-08-17T11:38:01.785Z,96438.05
2018-08-17T11:40:29.037Z,96439.48
2018-08-17T11:42:57.004Z,96437.98
2018-08-17T11:45:25.534Z,96440.02
2018-08-17T11:47:53.610Z,96445.40
2018-08-17T11:50:22.027Z,96437.02
2018-08-17T11:52:51.029Z,96435.06
2018-08-17T11:55:18.806Z,96438.62
2018-08-17T11:57:46.319Z,96436.70
2018-08-17T12:00:13.625Z,96430.21
2018-08-17T12:02:40.960Z,96431.19
2018-08-17T12:05:08.883Z,96427.66
2018-08-17T12:07:36.205Z,96432.06
2018-08-17T12:10:04.545Z,96428.66
2018-08-17T12:12:34.040Z,96429.48
2018-08-17T12:15:01.795Z,96432.31
2018-08-17T12:17:29.271Z,96436.77
2018-08-17T12:19:56.624Z,96431.87
2018-08-17T12:22:23.859Z,96429.69
2018-08-17T12:24:51.227Z,96430.36
2018-08-17T12:27:18.554Z,96415.96
2018-08-17T12:29:45.849Z,96423.98
2018-08-17T12:32:13.177Z,96428.22
2018-08-17T12:34:40.412Z,96419.97
2018-08-17T12:37:07.667Z,96421.34
2018-08-17T12:39:35.064Z,96422.12
2018-08-17T12:42:02.519Z,96422.22
2018-08-17T12:44:29.941Z,96415.22
2018-08-17T12:46:57.302Z,96419.70
2018-08-17T12:49:25.268Z,96419.67
2018-08-17T12:51:52.494Z,96427.37
2018-08-17T12:54:25.600Z,96418.50
2018-08-17T12:56:53.145Z,96421.91
2018-08-17T12:59:20.496Z,96419.59
2018-08-17T13:01:47.825Z,96423.55
2018-08-17T13:04:15.278Z,96421.45
2018-08-17T13:06:42.653Z,96415.92
2018-08-17T13:09:09.890Z,96418.73
2018-08-17T13:11:41.781Z,96416.13
2018-08-17T13:14:12.337Z,96410.19
2018-08-17T13:16:40.280Z,96416.34
2018-08-17T13:19:07.909Z,96421.16
2018-08-17T13:21:35.260Z,96418.34
2018-08-17T13:24:02.665Z,96423.64
2018-08-17T13:26:29.989Z,96423.83
2018-08-17T13:28:57.347Z,96417.09
2018-08-17T13:31:29.861Z,96422.55
2018-08-17T13:33:57.221Z,96433.40
2018-08-17T13:36:24.479Z,96423.78
2018-08-17T13:38:52.270Z,96422.84
2018-08-17T13:41:19.564Z,96419.97
2018-08-17T13:43:46.921Z,96416.00
2018-08-17T13:46:14.494Z,96414.72
2018-08-17T13:48:41.893Z,96412.97
2018-08-17T13:51:09.197Z,96413.73
2018-08-17T13:53:36.481Z,96411.76
2018-08-17T13:56:03.832Z,96408.86
2018-08-17T14:00:00.660Z,96405.25
2018-08-17T14:02:27.976Z,96402.11
2018-08-17T14:04:55.311Z,96393.95
2018-08-17T14:07:22.612Z,96394.27
2018-08-17T14:09:49.895Z,96399.05
2018-08-17T14:12:17.268Z,96398.84
2018-08-17T14:14:44.679Z,96396.25
2018-08-17T14:17:12.286Z,96403.17
2018-08-17T14:19:39.694Z,96409.11
2018-08-17T14:22:07.186Z,96405.77
2018-08-17T14:24:34.499Z,96412.73
2018-08-17T14:27:01.988Z,96412.56
2018-08-17T14:29:29.345Z,96416.75
2018-08-17T14:31:56.696Z,96413.64
2018-08-17T14:34:24.234Z,96413.55
2018-08-17T14:36:51.712Z,96416.41
2018-08-17T14:39:19.042Z,96381.64
2018-08-17T14:41:53.774Z,96418.02
2018-08-17T14:44:21.068Z,96420.63
2018-08-17T14:46:48.355Z,96421.16
2018-08-17T14:49:15.879Z,96408.12
2018-08-17T14:51:43.243Z,96414.03
2018-08-17T14:54:10.469Z,96417.28
2018-08-17T14:56:37.790Z,96419.16
2018-08-17T14:59:05.354Z,96425.73
2018-08-17T15:01:32.676Z,96420.64
2018-08-17T15:04:00.044Z,96419.66
2018-08-17T15:06:27.280Z,96423.66
2018-08-17T15:08:55.238Z,96424.70
2018-08-17T15:11:22.577Z,96427.30
2018-08-17T15:13:49.920Z,96429.03
2018-08-17T15:16:17.270Z,96435.67
2018-08-17T15:18:44.745Z,96428.32
2018-08-17T15:21:12.184Z,96427.06
2018-08-17T15:23:39.678Z,96433.28
2018-08-17T15:26:07.104Z,96427.84
2018-08-17T15:28:34.490Z,96427.78
2018-08-17T15:31:01.738Z,96432.16
2018-08-17T15:33:29.269Z,96424.36
2018-08-17T15:35:56.563Z,96416.06
2018-08-17T15:38:23.852Z,96420.39
2018-08-17T15:40:51.173Z,96414.40
2018-08-17T15:43:19.027Z,96416.45
2018-08-17T15:45:48.246Z,96421.66
2018-08-17T15:48:15.730Z,96422.97
2018-08-17T15:50:42.927Z,96418.77
2018-08-17T15:53:10.226Z,96423.30
2018-08-17T15:55:37.531Z,96417.38
2018-08-17T15:58:04.811Z,96415.81
2018-08-17T16:00:32.079Z,96412.84
2018-08-17T16:02:59.857Z,96414.84
2018-08-17T16:05:27.246Z,96410.08
2018-08-17T16:07:54.525Z,96418.95
2018-08-17T16:10:21.926Z,96414.58
2018-08-17T16:12:49.214Z,96410.30
2018-08-17T16:15:16.605Z,96409.35
2018-08-17T16:17:44.039Z,96410.92
2018-08-17T16:20:12.251Z,96407.23
2018-08-17T16:22:39.891Z,96414.52
2018-08-17T16:25:08.201Z,96421.70
2018-08-17T16:27:35.538Z,96422.90
2018-08-17T16:30:03.066Z,96417.80
2018-08-17T16:32:30.277Z,96425.67
2018-08-17T16:34:57.513Z,96427.06
2018-08-17T16:37:24.891Z,96425.33
2018-08-17T16:40:01.941Z,96422.50
2018-08-17T16:42:35.035Z,96428.61
2018-08-17T16:45:22.267Z,96427.40
2018-08-17T16:47:50.285Z,96429.91
2018-08-17T16:50:17.578Z,96438.34
2018-08-17T16:53:16.047Z,96443.88
2018-08-17T16:55:43.353Z,96454.70
2018-08-17T16:58:11.176Z,96465.14
2018-08-17T17:00:38.575Z,96469.59
2018-08-17T17:03:06.914Z,96466.80
2018-08-17T17:05:34.324Z,96466.80
2018-08-17T17:08:01.564Z,96471.55
2018-08-17T17:10:29.748Z,96475.87
2018-08-17T17:13:03.031Z,96474.31
2018-08-17T17:15:32.675Z,96475.14
2018-08-17T17:18:05.729Z,96480.41
2018-08-17T17:20:33.229Z,96476.69
2018-08-17T17:23:08.061Z,96481.23
2018-08-17T17:25:42.217Z,96493.28
2018-08-17T17:28:10.433Z,96493.96
2018-08-17T17:30:44.821Z,96498.34
2018-08-17T17:33:12.199Z,96502.11
2018-08-17T17:35:40.512Z,96505.89
2018-08-17T17:38:08.817Z,96510.34
2018-08-17T17:40:36.274Z,96515.70
2018-08-17T17:43:03.958Z,96525.98
2018-08-17T17:45:31.287Z,96533.78
2018-08-17T17:47:59.481Z,96536.36
2018-08-17T17:50:26.692Z,96536.45
2018-08-17T17:53:06.604Z,96542.11
2018-08-17T17:55:48.639Z,96543.77
2018-08-17T17:58:20.639Z,96549.69
2018-08-17T18:00:56.976Z,96550.41
2018-08-17T18:03:25.402Z,96550.59
2018-08-17T18:05:52.709Z,96554.23
2018-08-17T18:08:19.938Z,96560.55
2018-08-17T18:10:47.616Z,96565.39
2018-08-17T18:13:14.992Z,96564.59
2018-08-17T18:15:42.335Z,96573.48
2018-08-17T18:18:09.617Z,96579.78
2018-08-17T18:20:36.961Z,96590.45
2018-08-17T18:23:05.440Z,96597.16
2018-08-17T18:25:32.686Z,96603.82
2018-08-17T18:27:59.926Z,96605.16
2018-08-17T18:30:27.207Z,96605.95
2018-08-17T18:32:54.451Z,96616.48
2018-08-17T18:35:21.728Z,96617.95
2018-08-17T18:37:49.017Z,96624.30
2018-08-17T18:40:16.273Z,96624.72
2018-08-17T18:42:43.547Z,96632.72
2018-08-17T18:45:10.818Z,96642.28
2018-08-17T18:47:38.160Z,96644.02
2018-08-17T18:50:06.222Z,96641.30
2018-08-17T18:52:33.704Z,96643.56
2018-08-17T18:55:00.953Z,96655.09
2018-08-17T18:57:28.159Z,96663.16
2018-08-17T18:59:55.420Z,96663.08
2018-08-17T19:02:22.688Z,96665.94
2018-08-17T19:04:50.046Z,96667.84
2018-08-17T19:07:17.339Z,96672.69
2018-08-17T19:09:44.895Z,96676.13
2018-08-17T19:12:12.295Z,96683.22
2018-08-17T19:14:46.294Z,96683.38
2018-08-17T19:17:19.315Z,96683.05
2018-08-17T19:19:46.580Z,96688.48
2018-08-17T19:25:44.969Z,96693.05
2018-08-17T19:28:12.236Z,96688.91
2018-08-17T19:30:39.455Z,96691.09
2018-08-17T19:33:10.382Z,96698.06
2018-08-17T19:35:43.397Z,96703.35
2018-08-17T19:38:10.648Z,96702.86
2018-08-17T19:40:37.955Z,96709.54
2018-08-17T19:43:05.639Z,96702.54
2018-08-17T19:45:32.918Z,96709.02
2018-08-17T19:48:00.190Z,96717.02
2018-08-17T19:50:27.457Z,96712.38
2018-08-17T19:52:54.796Z,96717.33
2018-08-17T19:55:22.026Z,96720.19
2018-08-17T19:57:49.314Z,96723.73
2018-08-17T20:00:16.702Z,96728.39
2018-08-17T20:02:43.997Z,96727.80
2018-08-17T20:05:11.234Z,96732.28
2018-08-17T20:07:38.824Z,96729.48
2018-08-17T20:10:07.250Z,96730.30
2018-08-17T20:12:34.544Z,96730.13
2018-08-17T20:15:02.729Z,96730.64
2018-08-17T20:17:29.980Z,96732.81
2018-08-17T20:19:57.271Z,96736.45
2018-08-17T20:22:24.532Z,96748.22
2018-08-17T20:24:51.834Z,96746.59
2018-08-17T20:27:19.873Z,96746.77
2018-08-17T20:29:47.290Z,96755.56
2018-08-17T20:32:14.635Z,96759.88
2018-08-17T20:34:45.548Z,96771.98
2018-08-17T20:37:13.994Z,96783.61
2018-08-17T20:39:42.507Z,96786.58
2018-08-17T20:42:10.316Z,96789.55
2018-08-17T20:44:37.662Z,96790.85
2018-08-17T20:47:05.077Z,96796.16
2018-08-17T20:49:32.332Z,96804.79
2018-08-17T20:52:01.451Z,96806.59
2018-08-17T20:54:29.513Z,96801.08
2018-08-17T20:56:56.928Z,96808.71
2018-08-17T20:59:24.287Z,96815.14
2018-08-17T21:01:51.789Z,96816.63
2018-08-17T21:04:19.135Z,96819.43
2018-08-17T21:06:46.760Z,96825.52
2018-08-17T21:09:14.115Z,96829.28
2018-08-17T21:11:41.511Z,96839.19
2018-08-17T21:14:08.835Z,96829.10
2018-08-17T21:16:36.208Z,96838.23
2018-08-17T21:19:03.701Z,96827.26
2018-08-17T21:21:31.043Z,96835.69
2018-08-17T21:23:58.423Z,96833.38
2018-08-17T21:26:26.130Z,96826.67
2018-08-17T21:28:53.515Z,96822.02
2018-08-17T21:31:20.775Z,96830.94
2018-08-17T21:33:48.113Z,96831.63
2018-08-17T21:36:15.411Z,96824.20
2018-08-17T21:38:42.883Z,96826.41
2018-08-17T21:41:10.191Z,96829.03
2018-08-17T21:43:37.577Z,96826.05
2018-08-17T21:46:05.727Z,96829.73
2018-08-17T21:48:36.163Z,96830.64
2018-08-17T21:51:03.566Z,96838.19
2018-08-17T21:53:30.899Z,96840.98
2018-08-17T21:55:58.159Z,96846.13
2018-08-17T21:58:25.499Z,96843.06
2018-08-17T22:00:52.880Z,96849.64
2018-08-17T22:03:32.987Z,96861.36
2018-08-17T22:06:00.493Z,96856.20
2018-08-17T22:08:27.779Z,96857.74
2018-08-17T22:10:55.121Z,96859.61
2018-08-17T22:13:31.308Z,96860.07
2018-08-17T22:15:58.907Z,96865.44
2018-08-17T22:18:26.648Z,96873.38
2018-08-17T22:20:54.009Z,96880.22
2018-08-17T22:23:21.278Z,96885.69
2018-08-17T22:25:48.613Z,96880.73
2018-08-17T22:28:16.081Z,96887.02
2018-08-17T22:30:43.361Z,96893.86
2018-08-17T22:33:11.077Z,96889.63
2018-08-17T22:35:38.395Z,96898.75
2018-08-17T22:38:05.742Z,96896.31
2018-08-17T22:40:32.999Z,96900.14
2018-08-17T22:43:00.312Z,96894.84
2018-08-17T22:45:27.652Z,96903.06
2018-08-17T22:47:54.998Z,96897.49
2018-08-17T22:50:22.318Z,96900.14
2018-08-17T22:52:49.705Z,96895.55
2018-08-17T22:55:17.105Z,96909.45
2018-08-17T22:57:44.293Z,96908.84
2018-08-17T23:00:19.547Z,96911.31
2018-08-17T23:02:48.029Z,96905.62
2018-08-17T23:05:17.263Z,96895.58
2018-08-17T23:07:44.595Z,96899.02
2018-08-17T23:10:18.031Z,96896.78
2018-08-17T23:12:46.287Z,96897.18
2018-08-17T23:15:13.754Z,96892.65
2018-08-17T23:17:44.623Z,96895.47
2018-08-17T23:20:11.923Z,96894.56
2018-08-17T23:22:46.456Z,96898.70
2018-08-17T23:25:14.007Z,96893.45
2018-08-17T23:27:41.238Z,96900.84
2018-08-17T23:30:08.650Z,96891.10
2018-08-17T23:32:35.855Z,96897.44
2018-08-17T23:35:03.203Z,96903.77
2018-08-17T23:37:30.491Z,96896.08
2018-08-17T23:39:57.709Z,96886.61
2018-08-17T23:42:24.973Z,96882.08
2018-08-17T23:44:52.294Z,96876.00
2018-08-17T23:47:19.604Z,96869.73
2018-08-17T23:49:46.862Z,96874.55
2018-08-17T23:52:14.139Z,96867.44
2018-08-17T23:54:41.425Z,96875.27
2018-08-17T23:57:08.794Z,96876.05
2018-08-17T23:59:36.036Z,96871.38
